sensor_id;sensor_type;location;lat;lon;timestamp;P1;durP1;ratioP1;P2;durP2;ratioP2
54199;SDS011;57035;47.428;-0.704;2022-09-09T00:00:24;15.07;;;4.07;;
54199;SDS011;57035;47.428;-0.704;2022-09-09T00:02:55;17.33;;;4.40;;
54199;SDS011;57035;47.428;-0.704;2022-09-09T00:05:25;16.08;;;3.90;;
54199;SDS011;57035;47.428;-0.704;2022-09-09T00:07:54;16.40;;;4.47;;
54199;SDS011;57035;47.428;-0.704;2022-09-09T00:10:37;17.20;;;4.20;;
54199;SDS011;57035;47.428;-0.704;2022-09-09T00:18:23;14.80;;;3.95;;
54199;SDS011;57035;47.428;-0.704;2022-09-09T00:20:55;11.95;;;3.38;;
54199;SDS011;57035;47.428;-0.704;2022-09-09T00:26:30;13.95;;;3.42;;
54199;SDS011;57035;47.428;-0.704;2022-09-09T00:28:52;13.02;;;3.70;;
54199;SDS011;57035;47.428;-0.704;2022-09-09T00:31:20;13.35;;;3.88;;
54199;SDS011;57035;47.428;-0.704;2022-09-09T00:33:49;15.68;;;3.70;;
54199;SDS011;57035;47.428;-0.704;2022-09-09T00:36:17;18.70;;;4.68;;
54199;SDS011;57035;47.428;-0.704;2022-09-09T00:38:48;16.33;;;4.32;;
54199;SDS011;57035;47.428;-0.704;2022-09-09T00:41:24;11.18;;;3.75;;
54199;SDS011;57035;47.428;-0.704;2022-09-09T00:43:55;16.42;;;4.05;;
54199;SDS011;57035;47.428;-0.704;2022-09-09T01:02:13;19.10;;;4.22;;
54199;SDS011;57035;47.428;-0.704;2022-09-09T01:04:41;11.15;;;3.40;;
54199;SDS011;57035;47.428;-0.704;2022-09-09T01:07:17;14.57;;;3.60;;
54199;SDS011;57035;47.428;-0.704;2022-09-09T01:09:51;16.90;;;4.90;;
54199;SDS011;57035;47.428;-0.704;2022-09-09T01:17:26;21.23;;;4.00;;
54199;SDS011;57035;47.428;-0.704;2022-09-09T01:25:28;15.38;;;3.75;;
54199;SDS011;57035;47.428;-0.704;2022-09-09T01:28:02;15.57;;;4.55;;
54199;SDS011;57035;47.428;-0.704;2022-09-09T01:30:30;22.00;;;6.90;;
54199;SDS011;57035;47.428;-0.704;2022-09-09T01:32:57;18.20;;;4.05;;
54199;SDS011;57035;47.428;-0.704;2022-09-09T01:37:57;13.30;;;3.90;;
54199;SDS011;57035;47.428;-0.704;2022-09-09T01:40:23;16.52;;;3.97;;
54199;SDS011;57035;47.428;-0.704;2022-09-09T01:42:50;17.00;;;4.25;;
54199;SDS011;57035;47.428;-0.704;2022-09-09T01:45:16;16.67;;;4.10;;
54199;SDS011;57035;47.428;-0.704;2022-09-09T01:47:42;15.82;;;3.53;;
54199;SDS011;57035;47.428;-0.704;2022-09-09T01:59:29;12.88;;;3.83;;
54199;SDS011;57035;47.428;-0.704;2022-09-09T02:02:08;14.55;;;3.85;;
54199;SDS011;57035;47.428;-0.704;2022-09-09T02:04:43;17.27;;;3.75;;
54199;SDS011;57035;47.428;-0.704;2022-09-09T02:09:52;12.52;;;3.67;;
54199;SDS011;57035;47.428;-0.704;2022-09-09T02:12:21;16.42;;;4.30;;
54199;SDS011;57035;47.428;-0.704;2022-09-09T02:14:55;19.95;;;4.05;;
54199;SDS011;57035;47.428;-0.704;2022-09-09T02:17:26;18.65;;;4.10;;
54199;SDS011;57035;47.428;-0.704;2022-09-09T02:19:56;15.35;;;4.30;;
54199;SDS011;57035;47.428;-0.704;2022-09-09T02:22:24;18.48;;;3.90;;
54199;SDS011;57035;47.428;-0.704;2022-09-09T02:24:51;17.80;;;5.00;;
54199;SDS011;57035;47.428;-0.704;2022-09-09T02:27:20;13.10;;;4.35;;
54199;SDS011;57035;47.428;-0.704;2022-09-09T02:29:48;14.27;;;3.72;;
54199;SDS011;57035;47.428;-0.704;2022-09-09T02:32:16;16.35;;;3.75;;
54199;SDS011;57035;47.428;-0.704;2022-09-09T02:34:44;15.85;;;3.78;;
54199;SDS011;57035;47.428;-0.704;2022-09-09T02:37:11;13.38;;;4.32;;
54199;SDS011;57035;47.428;-0.704;2022-09-09T02:39:38;9.80;;;3.28;;
54199;SDS011;57035;47.428;-0.704;2022-09-09T02:42:04;14.43;;;3.28;;
54199;SDS011;57035;47.428;-0.704;2022-09-09T02:44:30;14.30;;;3.50;;
54199;SDS011;57035;47.428;-0.704;2022-09-09T02:52:08;16.40;;;3.85;;
54199;SDS011;57035;47.428;-0.704;2022-09-09T02:54:37;14.20;;;4.00;;
54199;SDS011;57035;47.428;-0.704;2022-09-09T02:59:30;13.85;;;4.28;;
54199;SDS011;57035;47.428;-0.704;2022-09-09T03:01:56;13.95;;;4.35;;
54199;SDS011;57035;47.428;-0.704;2022-09-09T03:04:22;16.42;;;4.30;;
54199;SDS011;57035;47.428;-0.704;2022-09-09T03:06:49;18.30;;;4.68;;
54199;SDS011;57035;47.428;-0.704;2022-09-09T03:09:16;15.38;;;4.70;;
54199;SDS011;57035;47.428;-0.704;2022-09-09T03:11:42;19.35;;;5.55;;
54199;SDS011;57035;47.428;-0.704;2022-09-09T03:14:08;18.08;;;4.53;;
54199;SDS011;57035;47.428;-0.704;2022-09-09T03:16:36;12.52;;;4.13;;
54199;SDS011;57035;47.428;-0.704;2022-09-09T03:19:02;16.58;;;4.43;;
54199;SDS011;57035;47.428;-0.704;2022-09-09T03:21:28;22.45;;;5.90;;
54199;SDS011;57035;47.428;-0.704;2022-09-09T03:23:54;12.95;;;4.18;;
54199;SDS011;57035;47.428;-0.704;2022-09-09T03:26:20;17.02;;;4.72;;
54199;SDS011;57035;47.428;-0.704;2022-09-09T03:28:46;22.27;;;5.45;;
54199;SDS011;57035;47.428;-0.704;2022-09-09T03:31:13;16.30;;;4.63;;
54199;SDS011;57035;47.428;-0.704;2022-09-09T03:33:39;22.98;;;4.80;;
54199;SDS011;57035;47.428;-0.704;2022-09-09T03:36:06;15.23;;;4.30;;
54199;SDS011;57035;47.428;-0.704;2022-09-09T03:38:33;14.05;;;4.65;;
54199;SDS011;57035;47.428;-0.704;2022-09-09T03:40:59;17.13;;;5.47;;
54199;SDS011;57035;47.428;-0.704;2022-09-09T03:43:27;16.40;;;5.15;;
54199;SDS011;57035;47.428;-0.704;2022-09-09T03:45:53;17.52;;;4.30;;
54199;SDS011;57035;47.428;-0.704;2022-09-09T03:48:21;18.95;;;4.95;;
54199;SDS011;57035;47.428;-0.704;2022-09-09T03:50:48;18.42;;;4.50;;
54199;SDS011;57035;47.428;-0.704;2022-09-09T03:53:15;13.95;;;5.07;;
54199;SDS011;57035;47.428;-0.704;2022-09-09T03:55:45;18.20;;;4.43;;
54199;SDS011;57035;47.428;-0.704;2022-09-09T03:58:11;19.60;;;4.57;;
54199;SDS011;57035;47.428;-0.704;2022-09-09T04:00:38;18.13;;;5.03;;
54199;SDS011;57035;47.428;-0.704;2022-09-09T04:03:07;16.30;;;5.97;;
54199;SDS011;57035;47.428;-0.704;2022-09-09T04:05:33;17.50;;;5.10;;
54199;SDS011;57035;47.428;-0.704;2022-09-09T04:07:59;18.75;;;4.88;;
54199;SDS011;57035;47.428;-0.704;2022-09-09T04:10:25;12.80;;;4.20;;
54199;SDS011;57035;47.428;-0.704;2022-09-09T04:12:51;17.77;;;4.70;;
54199;SDS011;57035;47.428;-0.704;2022-09-09T04:15:17;16.80;;;4.40;;
54199;SDS011;57035;47.428;-0.704;2022-09-09T04:17:44;15.90;;;4.15;;
54199;SDS011;57035;47.428;-0.704;2022-09-09T04:20:10;18.50;;;4.28;;
54199;SDS011;57035;47.428;-0.704;2022-09-09T04:22:37;13.27;;;4.00;;
54199;SDS011;57035;47.428;-0.704;2022-09-09T04:25:04;14.27;;;4.68;;
54199;SDS011;57035;47.428;-0.704;2022-09-09T04:27:30;16.27;;;4.20;;
54199;SDS011;57035;47.428;-0.704;2022-09-09T04:29:56;20.20;;;4.50;;
54199;SDS011;57035;47.428;-0.704;2022-09-09T04:32:23;11.90;;;4.57;;
54199;SDS011;57035;47.428;-0.704;2022-09-09T04:34:52;12.82;;;3.80;;
54199;SDS011;57035;47.428;-0.704;2022-09-09T04:37:18;15.13;;;4.15;;
54199;SDS011;57035;47.428;-0.704;2022-09-09T04:39:44;14.10;;;4.45;;
54199;SDS011;57035;47.428;-0.704;2022-09-09T04:42:10;13.30;;;3.80;;
54199;SDS011;57035;47.428;-0.704;2022-09-09T04:44:36;16.00;;;4.40;;
54199;SDS011;57035;47.428;-0.704;2022-09-09T04:47:02;11.82;;;4.88;;
54199;SDS011;57035;47.428;-0.704;2022-09-09T04:49:28;16.45;;;4.35;;
54199;SDS011;57035;47.428;-0.704;2022-09-09T04:51:55;13.55;;;4.07;;
54199;SDS011;57035;47.428;-0.704;2022-09-09T04:54:21;11.55;;;3.55;;
54199;SDS011;57035;47.428;-0.704;2022-09-09T04:56:49;16.02;;;6.60;;
54199;SDS011;57035;47.428;-0.704;2022-09-09T04:59:15;15.35;;;3.80;;
54199;SDS011;57035;47.428;-0.704;2022-09-09T05:01:41;12.48;;;3.60;;
54199;SDS011;57035;47.428;-0.704;2022-09-09T05:04:07;12.27;;;3.70;;
54199;SDS011;57035;47.428;-0.704;2022-09-09T05:06:34;13.73;;;4.30;;
54199;SDS011;57035;47.428;-0.704;2022-09-09T05:09:01;10.95;;;3.55;;
54199;SDS011;57035;47.428;-0.704;2022-09-09T05:11:28;13.05;;;3.55;;
54199;SDS011;57035;47.428;-0.704;2022-09-09T05:13:55;16.45;;;4.28;;
54199;SDS011;57035;47.428;-0.704;2022-09-09T05:16:23;14.05;;;3.92;;
54199;SDS011;57035;47.428;-0.704;2022-09-09T05:18:50;13.13;;;4.65;;
54199;SDS011;57035;47.428;-0.704;2022-09-09T05:21:17;11.43;;;3.88;;
54199;SDS011;57035;47.428;-0.704;2022-09-09T05:23:44;14.23;;;3.55;;
54199;SDS011;57035;47.428;-0.704;2022-09-09T05:26:14;12.00;;;3.80;;
54199;SDS011;57035;47.428;-0.704;2022-09-09T05:28:40;12.75;;;3.85;;
54199;SDS011;57035;47.428;-0.704;2022-09-09T05:31:06;16.30;;;5.95;;
54199;SDS011;57035;47.428;-0.704;2022-09-09T05:33:34;16.67;;;4.28;;
54199;SDS011;57035;47.428;-0.704;2022-09-09T05:36:04;12.10;;;4.05;;
54199;SDS011;57035;47.428;-0.704;2022-09-09T05:38:31;12.10;;;4.05;;
54199;SDS011;57035;47.428;-0.704;2022-09-09T05:40:58;12.88;;;4.45;;
54199;SDS011;57035;47.428;-0.704;2022-09-09T05:43:25;15.00;;;4.50;;
54199;SDS011;57035;47.428;-0.704;2022-09-09T05:45:58;12.82;;;4.78;;
54199;SDS011;57035;47.428;-0.704;2022-09-09T05:48:33;12.77;;;4.25;;
54199;SDS011;57035;47.428;-0.704;2022-09-09T05:53:29;13.65;;;5.82;;
54199;SDS011;57035;47.428;-0.704;2022-09-09T05:56:20;13.13;;;4.15;;
54199;SDS011;57035;47.428;-0.704;2022-09-09T05:58:46;12.75;;;4.05;;
54199;SDS011;57035;47.428;-0.704;2022-09-09T06:01:15;13.70;;;4.60;;
54199;SDS011;57035;47.428;-0.704;2022-09-09T06:03:42;11.20;;;4.25;;
54199;SDS011;57035;47.428;-0.704;2022-09-09T06:06:09;15.30;;;4.25;;
54199;SDS011;57035;47.428;-0.704;2022-09-09T06:08:37;14.00;;;4.53;;
54199;SDS011;57035;47.428;-0.704;2022-09-09T06:13:29;14.25;;;4.13;;
54199;SDS011;57035;47.428;-0.704;2022-09-09T06:15:56;14.70;;;4.22;;
54199;SDS011;57035;47.428;-0.704;2022-09-09T06:18:23;13.13;;;3.40;;
54199;SDS011;57035;47.428;-0.704;2022-09-09T06:21:02;5.63;;;2.53;;
54199;SDS011;57035;47.428;-0.704;2022-09-09T06:23:29;10.05;;;2.47;;
54199;SDS011;57035;47.428;-0.704;2022-09-09T06:26:05;7.97;;;2.75;;
54199;SDS011;57035;47.428;-0.704;2022-09-09T06:28:32;11.50;;;2.70;;
54199;SDS011;57035;47.428;-0.704;2022-09-09T06:30:59;7.90;;;3.10;;
54199;SDS011;57035;47.428;-0.704;2022-09-09T06:33:25;7.43;;;2.30;;
54199;SDS011;57035;47.428;-0.704;2022-09-09T06:35:52;7.55;;;2.67;;
54199;SDS011;57035;47.428;-0.704;2022-09-09T06:38:19;7.82;;;2.60;;
54199;SDS011;57035;47.428;-0.704;2022-09-09T06:40:53;11.07;;;2.65;;
54199;SDS011;57035;47.428;-0.704;2022-09-09T06:43:22;7.32;;;2.00;;
54199;SDS011;57035;47.428;-0.704;2022-09-09T06:48:21;7.90;;;2.20;;
54199;SDS011;57035;47.428;-0.704;2022-09-09T06:50:47;9.75;;;2.40;;
54199;SDS011;57035;47.428;-0.704;2022-09-09T06:53:17;7.20;;;2.00;;
54199;SDS011;57035;47.428;-0.704;2022-09-09T06:55:46;7.03;;;2.10;;
54199;SDS011;57035;47.428;-0.704;2022-09-09T06:58:12;5.57;;;2.15;;
54199;SDS011;57035;47.428;-0.704;2022-09-09T07:00:38;6.72;;;2.13;;
54199;SDS011;57035;47.428;-0.704;2022-09-09T07:03:04;9.57;;;2.28;;
54199;SDS011;57035;47.428;-0.704;2022-09-09T07:05:31;6.68;;;1.80;;
54199;SDS011;57035;47.428;-0.704;2022-09-09T07:07:57;9.98;;;2.35;;
54199;SDS011;57035;47.428;-0.704;2022-09-09T07:10:23;5.05;;;2.08;;
54199;SDS011;57035;47.428;-0.704;2022-09-09T07:12:50;8.80;;;2.72;;
54199;SDS011;57035;47.428;-0.704;2022-09-09T07:15:17;4.78;;;2.05;;
54199;SDS011;57035;47.428;-0.704;2022-09-09T07:17:43;7.75;;;2.28;;
54199;SDS011;57035;47.428;-0.704;2022-09-09T07:20:10;8.20;;;2.75;;
54199;SDS011;57035;47.428;-0.704;2022-09-09T07:22:36;7.88;;;2.75;;
54199;SDS011;57035;47.428;-0.704;2022-09-09T07:25:02;5.97;;;2.13;;
54199;SDS011;57035;47.428;-0.704;2022-09-09T07:27:28;8.60;;;2.38;;
54199;SDS011;57035;47.428;-0.704;2022-09-09T07:29:55;6.20;;;2.38;;
54199;SDS011;57035;47.428;-0.704;2022-09-09T07:32:22;6.47;;;2.03;;
54199;SDS011;57035;47.428;-0.704;2022-09-09T07:34:48;7.82;;;2.33;;
54199;SDS011;57035;47.428;-0.704;2022-09-09T07:37:15;7.57;;;2.60;;
54199;SDS011;57035;47.428;-0.704;2022-09-09T07:39:42;6.55;;;2.20;;
54199;SDS011;57035;47.428;-0.704;2022-09-09T07:42:09;7.57;;;2.42;;
54199;SDS011;57035;47.428;-0.704;2022-09-09T07:44:36;9.57;;;2.80;;
54199;SDS011;57035;47.428;-0.704;2022-09-09T07:47:04;10.40;;;3.17;;
54199;SDS011;57035;47.428;-0.704;2022-09-09T07:49:31;8.00;;;2.53;;
54199;SDS011;57035;47.428;-0.704;2022-09-09T07:51:57;10.07;;;2.30;;
54199;SDS011;57035;47.428;-0.704;2022-09-09T07:54:24;11.00;;;2.75;;
54199;SDS011;57035;47.428;-0.704;2022-09-09T07:56:51;9.52;;;2.30;;
54199;SDS011;57035;47.428;-0.704;2022-09-09T07:59:18;7.60;;;2.50;;
54199;SDS011;57035;47.428;-0.704;2022-09-09T08:01:44;8.88;;;2.70;;
54199;SDS011;57035;47.428;-0.704;2022-09-09T08:04:15;7.93;;;2.45;;
54199;SDS011;57035;47.428;-0.704;2022-09-09T08:06:46;6.47;;;2.33;;
54199;SDS011;57035;47.428;-0.704;2022-09-09T08:09:12;8.35;;;2.47;;
54199;SDS011;57035;47.428;-0.704;2022-09-09T08:11:39;8.02;;;2.30;;
54199;SDS011;57035;47.428;-0.704;2022-09-09T08:14:06;8.73;;;2.60;;
54199;SDS011;57035;47.428;-0.704;2022-09-09T08:16:37;7.68;;;2.20;;
54199;SDS011;57035;47.428;-0.704;2022-09-09T08:19:04;9.05;;;2.17;;
54199;SDS011;57035;47.428;-0.704;2022-09-09T08:21:31;7.88;;;2.60;;
54199;SDS011;57035;47.428;-0.704;2022-09-09T08:23:58;10.05;;;2.13;;
54199;SDS011;57035;47.428;-0.704;2022-09-09T08:26:26;6.60;;;2.28;;
54199;SDS011;57035;47.428;-0.704;2022-09-09T08:28:53;9.25;;;2.80;;
54199;SDS011;57035;47.428;-0.704;2022-09-09T08:31:21;8.55;;;3.10;;
54199;SDS011;57035;47.428;-0.704;2022-09-09T08:33:48;9.35;;;3.40;;
54199;SDS011;57035;47.428;-0.704;2022-09-09T08:36:15;9.00;;;2.45;;
54199;SDS011;57035;47.428;-0.704;2022-09-09T08:38:42;10.27;;;2.72;;
54199;SDS011;57035;47.428;-0.704;2022-09-09T08:41:17;9.77;;;2.92;;
54199;SDS011;57035;47.428;-0.704;2022-09-09T08:43:47;8.98;;;2.50;;
54199;SDS011;57035;47.428;-0.704;2022-09-09T08:46:16;10.63;;;2.75;;
54199;SDS011;57035;47.428;-0.704;2022-09-09T08:48:56;7.75;;;2.20;;
54199;SDS011;57035;47.428;-0.704;2022-09-09T08:51:27;9.23;;;2.50;;
54199;SDS011;57035;47.428;-0.704;2022-09-09T08:53:54;10.93;;;3.53;;
54199;SDS011;57035;47.428;-0.704;2022-09-09T08:56:25;8.15;;;3.10;;
54199;SDS011;57035;47.428;-0.704;2022-09-09T08:58:52;6.95;;;2.50;;
54199;SDS011;57035;47.428;-0.704;2022-09-09T09:03:51;8.07;;;2.92;;
54199;SDS011;57035;47.428;-0.704;2022-09-09T09:11:38;6.28;;;2.17;;
54199;SDS011;57035;47.428;-0.704;2022-09-09T09:16:38;6.60;;;2.53;;
54199;SDS011;57035;47.428;-0.704;2022-09-09T09:19:04;6.82;;;2.85;;
54199;SDS011;57035;47.428;-0.704;2022-09-09T09:22:04;9.80;;;2.20;;
54199;SDS011;57035;47.428;-0.704;2022-09-09T09:24:25;6.10;;;2.22;;
54199;SDS011;57035;47.428;-0.704;2022-09-09T09:26:53;8.15;;;2.50;;
54199;SDS011;57035;47.428;-0.704;2022-09-09T09:29:19;7.72;;;2.70;;
54199;SDS011;57035;47.428;-0.704;2022-09-09T09:31:53;7.05;;;2.15;;
54199;SDS011;57035;47.428;-0.704;2022-09-09T09:34:20;6.32;;;1.80;;
54199;SDS011;57035;47.428;-0.704;2022-09-09T09:36:54;6.55;;;2.10;;
54199;SDS011;57035;47.428;-0.704;2022-09-09T09:39:31;9.57;;;2.50;;
54199;SDS011;57035;47.428;-0.704;2022-09-09T09:42:13;9.10;;;2.40;;
54199;SDS011;57035;47.428;-0.704;2022-09-09T09:44:41;7.85;;;2.65;;
54199;SDS011;57035;47.428;-0.704;2022-09-09T09:47:08;5.18;;;1.88;;
54199;SDS011;57035;47.428;-0.704;2022-09-09T09:49:35;5.63;;;1.95;;
54199;SDS011;57035;47.428;-0.704;2022-09-09T09:52:05;8.50;;;2.92;;
54199;SDS011;57035;47.428;-0.704;2022-09-09T09:54:39;8.93;;;2.20;;
54199;SDS011;57035;47.428;-0.704;2022-09-09T09:57:10;7.45;;;2.55;;
54199;SDS011;57035;47.428;-0.704;2022-09-09T09:59:37;8.07;;;2.40;;
54199;SDS011;57035;47.428;-0.704;2022-09-09T10:04:36;8.55;;;2.42;;
54199;SDS011;57035;47.428;-0.704;2022-09-09T10:07:13;9.43;;;2.72;;
54199;SDS011;57035;47.428;-0.704;2022-09-09T10:09:42;11.00;;;3.45;;
54199;SDS011;57035;47.428;-0.704;2022-09-09T10:12:26;7.22;;;2.13;;
54199;SDS011;57035;47.428;-0.704;2022-09-09T10:22:33;9.63;;;2.05;;
54199;SDS011;57035;47.428;-0.704;2022-09-09T10:27:54;7.70;;;2.53;;
54199;SDS011;57035;47.428;-0.704;2022-09-09T10:30:30;7.40;;;2.08;;
54199;SDS011;57035;47.428;-0.704;2022-09-09T10:33:10;6.70;;;2.40;;
54199;SDS011;57035;47.428;-0.704;2022-09-09T10:53:53;6.53;;;2.78;;
54199;SDS011;57035;47.428;-0.704;2022-09-09T10:56:22;6.32;;;1.92;;
54199;SDS011;57035;47.428;-0.704;2022-09-09T11:01:42;8.38;;;2.00;;
54199;SDS011;57035;47.428;-0.704;2022-09-09T11:04:17;8.15;;;2.53;;
54199;SDS011;57035;47.428;-0.704;2022-09-09T11:06:46;7.45;;;1.75;;
54199;SDS011;57035;47.428;-0.704;2022-09-09T11:09:15;6.43;;;1.92;;
54199;SDS011;57035;47.428;-0.704;2022-09-09T11:11:44;8.30;;;1.90;;
54199;SDS011;57035;47.428;-0.704;2022-09-09T11:14:14;6.30;;;2.63;;
54199;SDS011;57035;47.428;-0.704;2022-09-09T11:16:51;8.80;;;2.13;;
54199;SDS011;57035;47.428;-0.704;2022-09-09T11:21:49;5.78;;;2.35;;
54199;SDS011;57035;47.428;-0.704;2022-09-09T11:24:21;6.95;;;2.53;;
54199;SDS011;57035;47.428;-0.704;2022-09-09T11:26:56;10.70;;;2.40;;
54199;SDS011;57035;47.428;-0.704;2022-09-09T11:37:14;6.65;;;1.73;;
54199;SDS011;57035;47.428;-0.704;2022-09-09T11:44:37;10.32;;;2.00;;
54199;SDS011;57035;47.428;-0.704;2022-09-09T11:47:15;7.15;;;2.25;;
54199;SDS011;57035;47.428;-0.704;2022-09-09T11:49:42;9.07;;;2.42;;
54199;SDS011;57035;47.428;-0.704;2022-09-09T11:52:21;7.28;;;2.10;;
54199;SDS011;57035;47.428;-0.704;2022-09-09T11:54:48;7.40;;;2.13;;
54199;SDS011;57035;47.428;-0.704;2022-09-09T11:57:33;6.45;;;2.10;;
54199;SDS011;57035;47.428;-0.704;2022-09-09T12:00:00;7.45;;;1.73;;
54199;SDS011;57035;47.428;-0.704;2022-09-09T12:02:28;5.68;;;1.85;;
54199;SDS011;57035;47.428;-0.704;2022-09-09T12:05:13;5.90;;;2.15;;
54199;SDS011;57035;47.428;-0.704;2022-09-09T12:07:50;4.68;;;1.50;;
54199;SDS011;57035;47.428;-0.704;2022-09-09T12:10:33;4.22;;;1.65;;
54199;SDS011;57035;47.428;-0.704;2022-09-09T12:15:52;9.18;;;2.10;;
54199;SDS011;57035;47.428;-0.704;2022-09-09T12:20:57;9.43;;;2.75;;
54199;SDS011;57035;47.428;-0.704;2022-09-09T12:28:54;7.65;;;2.15;;
54199;SDS011;57035;47.428;-0.704;2022-09-09T12:31:24;3.67;;;1.70;;
54199;SDS011;57035;47.428;-0.704;2022-09-09T12:33:51;8.75;;;1.80;;
54199;SDS011;57035;47.428;-0.704;2022-09-09T12:36:24;6.30;;;2.15;;
54199;SDS011;57035;47.428;-0.704;2022-09-09T12:38:53;7.43;;;2.08;;
54199;SDS011;57035;47.428;-0.704;2022-09-09T12:41:21;6.40;;;1.80;;
54199;SDS011;57035;47.428;-0.704;2022-09-09T12:43:47;5.70;;;1.70;;
54199;SDS011;57035;47.428;-0.704;2022-09-09T12:46:22;5.20;;;1.85;;
54199;SDS011;57035;47.428;-0.704;2022-09-09T12:48:51;7.60;;;1.80;;
54199;SDS011;57035;47.428;-0.704;2022-09-09T12:51:24;7.47;;;2.33;;
54199;SDS011;57035;47.428;-0.704;2022-09-09T12:53:51;6.78;;;1.65;;
54199;SDS011;57035;47.428;-0.704;2022-09-09T12:56:21;6.85;;;1.90;;
54199;SDS011;57035;47.428;-0.704;2022-09-09T12:58:49;4.55;;;1.80;;
54199;SDS011;57035;47.428;-0.704;2022-09-09T13:01:30;7.18;;;1.52;;
54199;SDS011;57035;47.428;-0.704;2022-09-09T13:03:56;4.18;;;1.60;;
54199;SDS011;57035;47.428;-0.704;2022-09-09T13:06:24;2.97;;;1.33;;
54199;SDS011;57035;47.428;-0.704;2022-09-09T13:08:50;5.05;;;1.40;;
54199;SDS011;57035;47.428;-0.704;2022-09-09T13:11:19;3.28;;;1.58;;
54199;SDS011;57035;47.428;-0.704;2022-09-09T13:13:51;5.63;;;1.58;;
54199;SDS011;57035;47.428;-0.704;2022-09-09T13:16:22;4.90;;;1.58;;
54199;SDS011;57035;47.428;-0.704;2022-09-09T13:18:48;4.82;;;1.80;;
54199;SDS011;57035;47.428;-0.704;2022-09-09T13:21:15;7.45;;;1.65;;
54199;SDS011;57035;47.428;-0.704;2022-09-09T13:23:42;6.72;;;1.70;;
54199;SDS011;57035;47.428;-0.704;2022-09-09T13:26:21;3.35;;;1.30;;
54199;SDS011;57035;47.428;-0.704;2022-09-09T13:28:47;5.35;;;2.08;;
54199;SDS011;57035;47.428;-0.704;2022-09-09T13:31:20;5.78;;;1.98;;
54199;SDS011;57035;47.428;-0.704;2022-09-09T13:33:46;6.50;;;1.60;;
54199;SDS011;57035;47.428;-0.704;2022-09-09T13:36:12;4.72;;;1.92;;
54199;SDS011;57035;47.428;-0.704;2022-09-09T13:41:24;5.78;;;1.75;;
54199;SDS011;57035;47.428;-0.704;2022-09-09T13:43:50;6.53;;;1.88;;
54199;SDS011;57035;47.428;-0.704;2022-09-09T13:46:25;5.20;;;1.65;;
54199;SDS011;57035;47.428;-0.704;2022-09-09T13:48:59;4.38;;;1.80;;
54199;SDS011;57035;47.428;-0.704;2022-09-09T13:52:26;8.05;;;1.98;;
54199;SDS011;57035;47.428;-0.704;2022-09-09T13:54:21;4.30;;;1.60;;
54199;SDS011;57035;47.428;-0.704;2022-09-09T13:56:47;6.40;;;1.58;;
54199;SDS011;57035;47.428;-0.704;2022-09-09T13:59:18;8.50;;;1.80;;
54199;SDS011;57035;47.428;-0.704;2022-09-09T14:01:45;5.22;;;1.88;;
54199;SDS011;57035;47.428;-0.704;2022-09-09T14:04:11;5.65;;;1.75;;
54199;SDS011;57035;47.428;-0.704;2022-09-09T14:06:37;4.65;;;1.40;;
54199;SDS011;57035;47.428;-0.704;2022-09-09T14:09:13;6.65;;;1.60;;
54199;SDS011;57035;47.428;-0.704;2022-09-09T14:11:40;6.88;;;2.25;;
54199;SDS011;57035;47.428;-0.704;2022-09-09T14:14:06;4.20;;;1.55;;
54199;SDS011;57035;47.428;-0.704;2022-09-09T14:16:32;6.38;;;1.40;;
54199;SDS011;57035;47.428;-0.704;2022-09-09T14:18:58;6.70;;;1.60;;
54199;SDS011;57035;47.428;-0.704;2022-09-09T14:21:24;8.88;;;1.90;;
54199;SDS011;57035;47.428;-0.704;2022-09-09T14:23:51;6.10;;;1.58;;
54199;SDS011;57035;47.428;-0.704;2022-09-09T14:26:22;6.53;;;2.17;;
54199;SDS011;57035;47.428;-0.704;2022-09-09T14:28:48;6.85;;;1.52;;
54199;SDS011;57035;47.428;-0.704;2022-09-09T14:31:15;12.07;;;1.95;;
54199;SDS011;57035;47.428;-0.704;2022-09-09T14:33:42;6.20;;;1.65;;
54199;SDS011;57035;47.428;-0.704;2022-09-09T14:36:08;3.65;;;1.30;;
54199;SDS011;57035;47.428;-0.704;2022-09-09T14:38:35;5.25;;;1.35;;
54199;SDS011;57035;47.428;-0.704;2022-09-09T14:41:14;3.67;;;1.30;;
54199;SDS011;57035;47.428;-0.704;2022-09-09T14:43:44;1.83;;;1.00;;
54199;SDS011;57035;47.428;-0.704;2022-09-09T14:46:12;1.75;;;1.65;;
54199;SDS011;57035;47.428;-0.704;2022-09-09T14:48:38;2.30;;;1.02;;
54199;SDS011;57035;47.428;-0.704;2022-09-09T14:51:06;1.45;;;0.98;;
54199;SDS011;57035;47.428;-0.704;2022-09-09T14:53:33;1.75;;;1.02;;
54199;SDS011;57035;47.428;-0.704;2022-09-09T14:56:05;2.72;;;1.10;;
54199;SDS011;57035;47.428;-0.704;2022-09-09T15:01:08;2.20;;;0.80;;
54199;SDS011;57035;47.428;-0.704;2022-09-09T15:03:37;6.15;;;1.50;;
54199;SDS011;57035;47.428;-0.704;2022-09-09T15:06:11;5.18;;;1.42;;
54199;SDS011;57035;47.428;-0.704;2022-09-09T15:08:37;6.03;;;1.65;;
54199;SDS011;57035;47.428;-0.704;2022-09-09T15:11:04;4.43;;;1.67;;
54199;SDS011;57035;47.428;-0.704;2022-09-09T15:13:34;4.00;;;1.40;;
54199;SDS011;57035;47.428;-0.704;2022-09-09T15:18:31;9.18;;;1.80;;
54199;SDS011;57035;47.428;-0.704;2022-09-09T15:20:58;5.55;;;1.70;;
54199;SDS011;57035;47.428;-0.704;2022-09-09T15:23:25;7.03;;;1.70;;
54199;SDS011;57035;47.428;-0.704;2022-09-09T15:25:54;6.15;;;1.98;;
54199;SDS011;57035;47.428;-0.704;2022-09-09T15:28:21;12.13;;;2.15;;
54199;SDS011;57035;47.428;-0.704;2022-09-09T15:30:51;8.82;;;2.15;;
54199;SDS011;57035;47.428;-0.704;2022-09-09T15:33:21;7.53;;;1.80;;
54199;SDS011;57035;47.428;-0.704;2022-09-09T15:35:47;5.35;;;1.80;;
54199;SDS011;57035;47.428;-0.704;2022-09-09T15:38:13;6.88;;;2.53;;
54199;SDS011;57035;47.428;-0.704;2022-09-09T15:40:41;5.63;;;2.40;;
54199;SDS011;57035;47.428;-0.704;2022-09-09T15:43:07;5.60;;;1.80;;
54199;SDS011;57035;47.428;-0.704;2022-09-09T15:45:36;7.47;;;2.33;;
54199;SDS011;57035;47.428;-0.704;2022-09-09T15:48:02;5.47;;;2.20;;
